Silver Shadow — C6FN6 — position and weather

sailwx.info

Track history (hours):
 
Tides and Currents Weather Stations Pressure Air Temp Water Temp Dewpoint Dewpoint Depression Visibility Wind Speed Wind Dir Waves Ship Positions

Silver Shadow

Operator: V Ships Leisure SAM

Last reported at 2016-May-26 14:32 UTC. Time now 2016-May-26 14:33 UTC.
Position N 49°17' W 123°07'.

Length 186 m; draft 6.1 m.

Type: Passenger vessel. MMSI: 308628000.

Date/timePositionNaut miles runAvg speedWind from/ knotsBaromVisibWave heightAir tempDewpointWater temp
2016-May-26 14:32N 49°17' W 123°07'3 2.7
2016-May-26 13:33N 49°19' W 123°10'1010.3
2016-May-26 12:33N 49°19' W 123°26'1010.1
2016-May-26 11:33N 49°19' W 123°41'1010.1
2016-May-26 10:33N 49°22' W 123°56'1010.4
2016-May-26 09:33N 49°24' W 124°12'1110.4
2016-May-26 08:33N 49°28' W 124°27'1010.5
2016-May-26 07:33N 49°36' W 124°38'1110.8
2016-May-26 06:33N 49°44' W 124°49'1110.5
2016-May-26 05:33N 49°51' W 124°60'1111.0
2016-May-26 04:33N 49°59' W 125°12'1312.8
2016-May-26 03:34N 50°10' W 125°22'1613.6
2016-May-26 02:21N 50°22' W 125°39'5017.5
2016-May-25 23:28N 50°41' W 126°53'1618.2
2016-May-25 22:33N 50°47' W 127°17'1818.2
2016-May-25 21:33N 50°56' W 127°42'1515.4
2016-May-25 20:33N 51°04' W 128°03'  
2016-May-22 10:33N 58°11' W 135°22'1616.5
2016-May-22 09:33N 58°19' W 135°49'1615.7
2016-May-22 08:32N 58°18' W 136°19'115 3.9
2016-May-21 03:17N 59°13' W 139°35'  
Track history (hours):
 
Tides and Currents Weather Stations Pressure Air Temp Water Temp Dewpoint Dewpoint Depression Visibility Wind Speed Wind Dir Waves Ship Positions

Silver Shadow

Operator: V Ships Leisure SAM

Last reported at 2016-May-26 14:32 UTC. Time now 2016-May-26 14:33 UTC.
Position N 49°17' W 123°07'.

Length 186 m; draft 6.1 m.

Type: Passenger vessel. MMSI: 308628000.

Date/timePositionNaut miles runAvg speedWind from/ knotsBaromVisibWave heightAir tempDewpointWater temp
2016-May-26 14:32N 49°17' W 123°07'3 2.7
2016-May-26 13:33N 49°19' W 123°10'1010.3
2016-May-26 12:33N 49°19' W 123°26'1010.1
2016-May-26 11:33N 49°19' W 123°41'1010.1
2016-May-26 10:33N 49°22' W 123°56'1010.4
2016-May-26 09:33N 49°24' W 124°12'1110.4
2016-May-26 08:33N 49°28' W 124°27'1010.5
2016-May-26 07:33N 49°36' W 124°38'1110.8
2016-May-26 06:33N 49°44' W 124°49'1110.5
2016-May-26 05:33N 49°51' W 124°60'1111.0
2016-May-26 04:33N 49°59' W 125°12'1312.8
2016-May-26 03:34N 50°10' W 125°22'1613.6
2016-May-26 02:21N 50°22' W 125°39'5017.5
2016-May-25 23:28N 50°41' W 126°53'1618.2
2016-May-25 22:33N 50°47' W 127°17'1818.2
2016-May-25 21:33N 50°56' W 127°42'1515.4
2016-May-25 20:33N 51°04' W 128°03'  
2016-May-22 10:33N 58°11' W 135°22'1616.5
2016-May-22 09:33N 58°19' W 135°49'1615.7
2016-May-22 08:32N 58°18' W 136°19'115 3.9
2016-May-21 03:17N 59°13' W 139°35'  

Dump ship's entire track history